createdAt,value
2022-09-04T00:00:19.353Z,16.76
2022-09-04T00:03:35.333Z,16.70
2022-09-04T00:06:13.495Z,16.63
2022-09-04T00:09:27.736Z,16.55
2022-09-04T00:12:05.707Z,16.46
2022-09-04T00:15:17.027Z,16.45
2022-09-04T00:18:13.188Z,16.48
2022-09-04T00:20:45.754Z,16.47
2022-09-04T00:23:48.219Z,16.37
2022-09-04T00:27:03.577Z,16.36
2022-09-04T00:30:07.807Z,16.25
2022-09-04T00:33:15.845Z,16.34
2022-09-04T00:35:55.175Z,16.33
2022-09-04T00:38:59.174Z,16.14
2022-09-04T00:42:21.921Z,16.05
2022-09-04T00:45:35.081Z,16.07
2022-09-04T00:49:01.034Z,16.19
2022-09-04T00:52:06.193Z,16.02
2022-09-04T00:55:28.170Z,15.98
2022-09-04T00:58:35.012Z,16.01
2022-09-04T01:01:02.830Z,15.90
2022-09-04T01:04:00.009Z,15.81
2022-09-04T01:07:23.988Z,15.80
2022-09-04T01:10:30.137Z,15.78
2022-09-04T01:13:29.193Z,15.75
2022-09-04T01:16:21.484Z,15.63
2022-09-04T01:19:13.017Z,15.62
2022-09-04T01:22:36.603Z,15.58
2022-09-04T01:25:32.122Z,15.56
2022-09-04T01:28:25.223Z,15.54
2022-09-04T01:31:22.580Z,15.58
2022-09-04T01:34:28.115Z,15.47
2022-09-04T01:37:03.934Z,15.50
2022-09-04T01:39:35.955Z,15.50
2022-09-04T01:42:20.754Z,15.45
2022-09-04T01:44:49.229Z,15.31
2022-09-04T01:47:36.705Z,15.29
2022-09-04T01:50:20.520Z,15.43
2022-09-04T01:53:27.376Z,15.23
2022-09-04T01:56:15.563Z,15.20
2022-09-04T01:59:01.171Z,15.16
2022-09-04T02:01:54.473Z,15.13
2022-09-04T02:04:51.978Z,15.18
2022-09-04T02:07:43.252Z,15.17
2022-09-04T02:10:21.617Z,15.11
2022-09-04T02:13:29.342Z,15.07
2022-09-04T02:16:26.484Z,14.95
2022-09-04T02:19:00.665Z,14.99
2022-09-04T02:22:17.534Z,14.98
2022-09-04T02:25:26.012Z,14.87
2022-09-04T02:28:18.482Z,14.92
2022-09-04T02:31:54.356Z,14.89
2022-09-04T02:34:38.190Z,14.84
2022-09-04T02:37:43.402Z,14.85
2022-09-04T02:40:38.595Z,14.71
2022-09-04T02:43:39.672Z,14.72
2022-09-04T02:47:01.642Z,14.82
2022-09-04T02:50:14.168Z,14.55
2022-09-04T02:53:03.258Z,14.61
2022-09-04T02:56:20.888Z,14.49
2022-09-04T02:59:30.950Z,14.49
2022-09-04T03:02:04.884Z,14.55
2022-09-04T03:05:00.702Z,14.46
2022-09-04T03:08:02.028Z,14.41
2022-09-04T03:10:42.870Z,14.35
2022-09-04T03:14:04.321Z,14.23
2022-09-04T03:16:47.770Z,14.30
2022-09-04T03:19:54.439Z,14.25
2022-09-04T03:22:33.276Z,14.12
2022-09-04T03:26:11.012Z,14.21
2022-09-04T03:29:14.923Z,14.26
2022-09-04T03:32:28.910Z,13.99
2022-09-04T03:35:29.064Z,14.10
2022-09-04T03:38:59.068Z,13.97
2022-09-04T03:41:57.868Z,13.91
2022-09-04T03:44:52.476Z,13.83
2022-09-04T03:48:02.433Z,13.85
2022-09-04T03:51:12.404Z,13.68
2022-09-04T03:54:08.878Z,13.71
2022-09-04T03:57:20.470Z,13.79
2022-09-04T04:00:23.463Z,13.76
2022-09-04T04:03:32.728Z,13.65
2022-09-04T04:06:31.053Z,13.70
2022-09-04T04:09:59.898Z,13.68
2022-09-04T04:13:05.376Z,13.58
2022-09-04T04:16:10.945Z,13.58
2022-09-04T04:19:52.265Z,13.59
2022-09-04T04:22:46.190Z,13.71
2022-09-04T04:26:00.665Z,13.72
2022-09-04T04:28:56.476Z,13.53
2022-09-04T04:32:17.281Z,13.59
2022-09-04T04:35:38.229Z,13.60
2022-09-04T04:38:45.984Z,13.47
2022-09-04T04:42:00.968Z,13.54
2022-09-04T04:45:22.978Z,13.53
2022-09-04T04:48:08.007Z,13.48
2022-09-04T04:51:40.426Z,13.47
2022-09-04T04:54:32.010Z,13.48
2022-09-04T04:57:42.345Z,13.62
2022-09-04T05:00:24.002Z,13.65
2022-09-04T05:03:28.118Z,13.57
2022-09-04T05:06:13.241Z,13.57
2022-09-04T05:09:13.195Z,13.63
2022-09-04T05:12:23.353Z,13.77
2022-09-04T05:15:15.286Z,13.77
2022-09-04T05:18:19.875Z,13.81
2022-09-04T05:21:16.934Z,13.97
2022-09-04T05:24:23.708Z,13.98
2022-09-04T05:27:07.234Z,14.18
2022-09-04T05:30:03.359Z,14.08
2022-09-04T05:33:19.746Z,14.23
2022-09-04T05:36:32.942Z,14.27
2022-09-04T05:39:36.970Z,14.37
2022-09-04T05:42:51.550Z,14.39
2022-09-04T05:45:44.234Z,14.44
2022-09-04T05:48:42.181Z,14.49
2022-09-04T05:52:20.693Z,14.59
2022-09-04T05:55:49.721Z,14.73
2022-09-04T05:59:01.713Z,14.72
2022-09-04T06:02:27.872Z,14.88
2022-09-04T06:05:19.190Z,14.85
2022-09-04T06:08:27.842Z,14.90
2022-09-04T06:11:31.454Z,14.99
2022-09-04T06:14:59.222Z,15.11
2022-09-04T06:18:06.606Z,15.03
2022-09-04T06:21:23.761Z,15.30
2022-09-04T06:24:33.256Z,15.37
2022-09-04T06:27:48.631Z,15.49
2022-09-04T06:30:17.828Z,15.51
2022-09-04T06:33:06.283Z,15.50
2022-09-04T06:36:12.197Z,15.62
2022-09-04T06:39:17.785Z,15.50
2022-09-04T06:42:11.475Z,15.62
2022-09-04T06:45:28.007Z,15.58
2022-09-04T06:48:42.686Z,15.70
2022-09-04T06:51:24.541Z,15.86
2022-09-04T06:54:18.528Z,15.97
2022-09-04T06:57:48.585Z,16.11
2022-09-04T07:00:18.381Z,16.04
2022-09-04T07:03:14.999Z,16.21
2022-09-04T07:06:08.917Z,16.12
2022-09-04T07:09:20.644Z,16.16
2022-09-04T07:12:28.006Z,16.30
2022-09-04T07:15:44.576Z,16.64
2022-09-04T07:18:37.261Z,16.41
2022-09-04T07:22:17.927Z,16.62
2022-09-04T07:25:12.714Z,16.70
2022-09-04T07:28:20.635Z,16.88
2022-09-04T07:31:34.839Z,16.67
2022-09-04T07:34:25.273Z,17.04
2022-09-04T07:37:32.507Z,17.19
2022-09-04T07:40:25.022Z,17.46
2022-09-04T07:43:30.150Z,16.94
2022-09-04T07:46:41.360Z,17.15
2022-09-04T07:49:29.101Z,17.34
2022-09-04T07:52:39.399Z,17.52
2022-09-04T07:55:51.962Z,17.57
2022-09-04T07:58:53.326Z,17.80
2022-09-04T08:01:53.948Z,17.80
2022-09-04T08:05:16.594Z,18.16
2022-09-04T08:08:10.458Z,18.39
2022-09-04T08:11:45.465Z,18.65
2022-09-04T08:14:22.500Z,18.79
2022-09-04T08:17:25.274Z,18.70
2022-09-04T08:20:22.579Z,18.75
2022-09-04T08:23:17.100Z,19.33
2022-09-04T08:26:35.918Z,19.16
2022-09-04T08:29:40.314Z,19.27
2022-09-04T08:33:10.274Z,19.53
2022-09-04T08:36:18.839Z,19.42
2022-09-04T08:39:13.526Z,19.63
2022-09-04T08:42:10.341Z,19.99
2022-09-04T08:45:55.232Z,20.23
2022-09-04T08:48:58.994Z,20.50
2022-09-04T08:52:22.423Z,20.42
2022-09-04T08:55:27.717Z,20.18
2022-09-04T08:58:26.674Z,20.20
2022-09-04T09:01:30.474Z,20.70
2022-09-04T09:04:55.133Z,20.65
2022-09-04T09:08:41.330Z,20.87
2022-09-04T09:12:02.556Z,21.04
2022-09-04T09:15:19.171Z,21.12
2022-09-04T09:18:35.344Z,21.16
2022-09-04T09:22:07.076Z,21.61
2022-09-04T09:25:20.420Z,21.92
2022-09-04T09:28:48.425Z,22.03
2022-09-04T09:31:47.128Z,21.41
2022-09-04T09:35:37.021Z,22.33
2022-09-04T09:38:36.034Z,22.33
2022-09-04T09:41:56.240Z,22.13
2022-09-04T09:45:36.584Z,22.06
2022-09-04T09:48:41.386Z,22.15
2022-09-04T09:52:22.261Z,22.09
2022-09-04T09:55:41.669Z,22.33
2022-09-04T09:58:38.835Z,22.56
2022-09-04T10:01:54.706Z,22.90
2022-09-04T10:05:19.322Z,22.65
2022-09-04T10:08:17.760Z,22.60
2022-09-04T10:11:46.225Z,23.57
2022-09-04T10:14:54.531Z,22.68
2022-09-04T10:17:58.667Z,23.08
2022-09-04T10:21:32.096Z,23.01
2022-09-04T10:24:22.545Z,22.71
2022-09-04T10:27:37.081Z,23.45
2022-09-04T10:30:21.383Z,23.87
2022-09-04T10:33:28.249Z,23.36
2022-09-04T10:36:27.860Z,23.88
2022-09-04T10:39:48.530Z,23.85
2022-09-04T10:42:48.296Z,23.68
2022-09-04T10:45:39.173Z,23.14
2022-09-04T10:48:54.194Z,24.12
2022-09-04T10:52:38.116Z,23.58
2022-09-04T10:55:17.615Z,25.29
2022-09-04T10:58:17.174Z,23.81
2022-09-04T11:01:06.155Z,24.26
2022-09-04T11:04:03.489Z,24.27
2022-09-04T11:06:57.869Z,23.62
2022-09-04T11:09:56.541Z,25.29
2022-09-04T11:13:23.175Z,23.93
2022-09-04T11:16:47.831Z,24.54
2022-09-04T11:20:00.720Z,24.38
2022-09-04T11:23:19.105Z,23.83
2022-09-04T11:26:33.692Z,24.20
2022-09-04T11:29:42.886Z,24.73
2022-09-04T11:32:34.408Z,24.43
2022-09-04T11:35:49.585Z,24.51
2022-09-04T11:39:03.256Z,25.26
2022-09-04T11:42:13.654Z,25.18
2022-09-04T11:45:39.238Z,24.96
2022-09-04T11:48:38.019Z,25.24
2022-09-04T11:52:14.791Z,25.01
2022-09-04T11:55:25.150Z,24.52
2022-09-04T11:58:19.254Z,25.14
2022-09-04T12:01:26.889Z,25.59
2022-09-04T12:04:46.743Z,24.59
2022-09-04T12:07:48.364Z,24.91
2022-09-04T12:10:53.162Z,25.52
2022-09-04T12:13:37.851Z,25.93
2022-09-04T12:16:59.278Z,26.44
2022-09-04T12:20:08.102Z,25.66
2022-09-04T12:23:11.214Z,25.26
2022-09-04T12:26:55.131Z,25.73
2022-09-04T12:30:14.873Z,25.35
2022-09-04T12:33:41.779Z,24.78
2022-09-04T12:36:46.217Z,24.42
2022-09-04T12:39:59.804Z,24.18
2022-09-04T12:42:50.861Z,25.28
2022-09-04T12:45:44.953Z,25.32
2022-09-04T12:49:12.143Z,26.21
2022-09-04T12:52:05.171Z,26.34
2022-09-04T12:55:03.265Z,25.69
2022-09-04T12:58:08.099Z,25.56
2022-09-04T13:01:19.914Z,25.19
2022-09-04T13:04:29.320Z,25.72
2022-09-04T13:07:41.005Z,25.49
2022-09-04T13:11:00.900Z,27.30
2022-09-04T13:14:08.891Z,24.85
2022-09-04T13:17:23.383Z,26.03
2022-09-04T13:20:19.087Z,26.23
2022-09-04T13:23:35.279Z,24.74
2022-09-04T13:27:07.626Z,25.05
2022-09-04T13:30:56.714Z,26.09
2022-09-04T13:34:13.423Z,26.02
2022-09-04T13:38:01.187Z,26.45
2022-09-04T13:41:11.044Z,28.05
2022-09-04T13:44:21.392Z,26.23
2022-09-04T13:47:13.637Z,26.79
2022-09-04T13:50:11.215Z,27.28
2022-09-04T13:53:02.911Z,26.95
2022-09-04T13:55:41.776Z,27.52
2022-09-04T13:58:28.021Z,26.52
2022-09-04T14:01:06.498Z,25.52
2022-09-04T14:04:04.813Z,26.12
2022-09-04T14:06:35.798Z,26.08
2022-09-04T14:09:05.673Z,25.67
2022-09-04T14:12:06.358Z,26.20
2022-09-04T14:15:08.079Z,25.99
2022-09-04T14:18:27.869Z,25.49
2022-09-04T14:21:37.467Z,26.68
2022-09-04T14:24:46.045Z,26.03
2022-09-04T14:28:06.779Z,25.88
2022-09-04T14:30:56.117Z,26.35
2022-09-04T14:33:56.462Z,26.11
2022-09-04T14:37:35.316Z,25.72
2022-09-04T14:40:11.359Z,25.65
2022-09-04T14:43:17.169Z,25.47
2022-09-04T14:46:25.929Z,26.16
2022-09-04T14:49:15.213Z,25.50
2022-09-04T14:51:46.617Z,24.97
2022-09-04T14:54:27.932Z,25.02
2022-09-04T14:57:42.355Z,25.47
2022-09-04T15:00:15.078Z,25.41
2022-09-04T15:03:21.998Z,25.61
2022-09-04T15:06:01.200Z,24.79
2022-09-04T15:08:39.972Z,26.12
2022-09-04T15:11:34.757Z,25.81
2022-09-04T15:14:26.275Z,25.44
2022-09-04T15:17:00.867Z,25.55
2022-09-04T15:20:03.400Z,24.87
2022-09-04T15:22:45.454Z,24.67
2022-09-04T15:25:18.616Z,24.24
2022-09-04T15:28:25.320Z,24.69
2022-09-04T15:31:15.629Z,24.65
2022-09-04T15:33:47.574Z,24.59
2022-09-04T15:36:24.525Z,24.66
2022-09-04T15:38:59.757Z,24.66
2022-09-04T15:41:45.189Z,24.39
2022-09-04T15:44:47.905Z,24.19
2022-09-04T15:47:23.816Z,24.20
2022-09-04T15:50:00.790Z,24.51
2022-09-04T15:53:08.962Z,24.06
2022-09-04T15:55:44.360Z,23.76
2022-09-04T15:58:40.057Z,23.94
2022-09-04T16:01:27.489Z,23.99
2022-09-04T16:04:46.901Z,23.57
2022-09-04T16:07:23.307Z,23.68
2022-09-04T16:10:25.779Z,23.93
2022-09-04T16:13:06.310Z,23.96
2022-09-04T16:15:42.991Z,23.69
2022-09-04T16:18:21.161Z,23.84
2022-09-04T16:21:01.245Z,23.61
2022-09-04T16:23:39.152Z,23.72
2022-09-04T16:26:23.209Z,23.76
2022-09-04T16:28:58.776Z,23.63
2022-09-04T16:31:36.817Z,23.58
2022-09-04T16:34:55.577Z,23.45
2022-09-04T16:37:42.467Z,23.28
2022-09-04T16:40:38.063Z,23.27
2022-09-04T16:43:25.801Z,23.21
2022-09-04T16:46:13.589Z,22.91
2022-09-04T16:49:01.374Z,23.11
2022-09-04T16:51:48.458Z,22.73
2022-09-04T16:54:39.067Z,22.75
2022-09-04T16:57:21.427Z,22.91
2022-09-04T17:00:08.984Z,22.98
2022-09-04T17:03:07.847Z,22.77
2022-09-04T17:05:53.702Z,22.60
2022-09-04T17:08:49.859Z,22.53
2022-09-04T17:11:55.459Z,22.23
2022-09-04T17:14:35.310Z,22.18
2022-09-04T17:17:31.393Z,21.84
2022-09-04T17:20:20.751Z,21.92
2022-09-04T17:29:03.906Z,21.79
2022-09-04T17:29:15.600Z,21.85
2022-09-04T17:29:47.112Z,21.70
2022-09-04T17:37:17.524Z,21.63
2022-09-04T17:40:33.905Z,21.53
2022-09-04T17:40:41.016Z,21.63
2022-09-04T17:42:09.482Z,21.28
2022-09-04T17:44:50.410Z,21.10
2022-09-04T17:47:38.054Z,20.99
2022-09-04T17:50:16.428Z,21.00
2022-09-04T17:53:14.755Z,21.00
2022-09-04T17:56:17.529Z,20.89
2022-09-04T17:59:00.938Z,21.06
2022-09-04T18:01:52.277Z,20.90
2022-09-04T18:04:47.169Z,20.72
2022-09-04T18:08:07.932Z,20.64
2022-09-04T18:11:03.139Z,20.39
2022-09-04T18:14:04.022Z,20.47
2022-09-04T18:16:38.837Z,20.29
2022-09-04T18:19:28.910Z,20.47
2022-09-04T18:22:26.684Z,20.38
2022-09-04T18:25:33.340Z,20.36
2022-09-04T18:28:49.959Z,20.09
2022-09-04T18:37:09.373Z,20.10
2022-09-04T18:37:16.261Z,19.84
2022-09-04T18:39:08.204Z,19.99
2022-09-04T18:45:47.608Z,19.79
2022-09-04T18:50:34.797Z,19.75
2022-09-04T18:50:49.100Z,19.78
2022-09-04T18:51:30.549Z,19.77
2022-09-04T18:54:33.702Z,19.56
2022-09-04T18:57:13.322Z,19.51
2022-09-04T18:59:45.506Z,19.33
2022-09-04T19:02:29.611Z,19.47
2022-09-04T19:05:09.890Z,19.50
2022-09-04T19:07:55.949Z,19.50
2022-09-04T19:10:46.654Z,19.35
2022-09-04T19:13:52.688Z,19.28
2022-09-04T19:16:53.417Z,19.24
2022-09-04T19:19:47.737Z,19.13
2022-09-04T19:22:32.805Z,19.23
2022-09-04T19:25:36.482Z,19.25
2022-09-04T19:28:27.405Z,19.10
2022-09-04T19:31:25.242Z,19.14
2022-09-04T19:34:13.583Z,18.89
2022-09-04T19:36:59.121Z,18.82
2022-09-04T19:45:57.548Z,18.69
2022-09-04T19:46:12.953Z,18.73
2022-09-04T19:51:13.502Z,18.51
2022-09-04T19:53:24.471Z,18.84
2022-09-04T19:55:24.906Z,18.65
2022-09-04T19:58:10.413Z,18.44
2022-09-04T20:00:50.414Z,18.54
2022-09-04T20:04:08.541Z,18.50
2022-09-04T20:06:47.359Z,18.20
2022-09-04T20:09:37.439Z,18.41
2022-09-04T20:12:34.859Z,18.46
2022-09-04T20:15:31.448Z,18.44
2022-09-04T20:18:24.752Z,18.42
2022-09-04T20:21:14.698Z,18.46
2022-09-04T20:24:04.442Z,18.28
2022-09-04T20:26:56.364Z,18.10
2022-09-04T20:29:36.043Z,18.21
2022-09-04T20:32:37.514Z,18.16
2022-09-04T20:35:32.901Z,18.21
2022-09-04T20:38:34.368Z,17.90
2022-09-04T20:41:07.656Z,18.07
2022-09-04T20:43:54.402Z,18.01
2022-09-04T20:50:37.458Z,17.86
2022-09-04T20:52:52.793Z,17.92
2022-09-04T20:53:35.048Z,17.91
2022-09-04T20:56:28.137Z,17.73
2022-09-04T21:03:12.857Z,18.05
2022-09-04T21:03:19.734Z,18.08
2022-09-04T21:05:28.983Z,17.94
2022-09-04T21:08:43.548Z,17.89
2022-09-04T21:11:40.639Z,17.94
2022-09-04T21:14:44.675Z,17.77
2022-09-04T21:18:01.360Z,17.79
2022-09-04T21:21:09.482Z,17.72
2022-09-04T21:24:23.152Z,17.77
2022-09-04T21:27:53.736Z,17.49
2022-09-04T21:31:21.858Z,17.77
2022-09-04T21:34:43.263Z,17.81
2022-09-04T21:37:23.887Z,17.80
2022-09-04T21:40:51.286Z,17.51
2022-09-04T21:44:00.325Z,17.33
2022-09-04T21:47:08.658Z,17.29
2022-09-04T21:50:43.642Z,17.31
2022-09-04T21:53:57.642Z,17.24
2022-09-04T22:02:30.898Z,17.17
2022-09-04T22:02:35.694Z,17.42
2022-09-04T22:03:09.440Z,17.29
2022-09-04T22:06:55.721Z,17.29
2022-09-04T22:13:30.587Z,17.28
2022-09-04T22:13:46.007Z,17.24
2022-09-04T22:16:32.845Z,17.33
2022-09-04T22:20:05.341Z,17.28
2022-09-04T22:23:34.528Z,17.15
2022-09-04T22:26:47.834Z,17.23
2022-09-04T22:29:40.510Z,17.16
2022-09-04T22:32:46.046Z,17.24
2022-09-04T22:35:35.647Z,17.13
2022-09-04T22:39:14.777Z,17.11
2022-09-04T22:42:20.901Z,17.00
2022-09-04T22:45:24.441Z,17.12
2022-09-04T22:48:36.360Z,17.04
2022-09-04T22:51:56.741Z,16.97
2022-09-04T22:54:57.249Z,16.94
2022-09-04T22:57:50.428Z,16.89
2022-09-04T23:00:22.692Z,16.81
2022-09-04T23:03:55.601Z,16.75
2022-09-04T23:10:43.494Z,16.69
2022-09-04T23:13:50.842Z,16.59
2022-09-04T23:14:23.791Z,16.59
2022-09-04T23:17:32.595Z,16.50
2022-09-04T23:26:32.846Z,16.46
2022-09-04T23:26:54.239Z,16.30
2022-09-04T23:27:28.628Z,16.48
2022-09-04T23:30:25.598Z,16.39
2022-09-04T23:33:42.233Z,16.25
2022-09-04T23:36:52.028Z,16.31
2022-09-04T23:39:50.644Z,16.15
2022-09-04T23:42:40.551Z,16.27
2022-09-04T23:45:48.811Z,16.07
2022-09-04T23:49:08.115Z,16.05
2022-09-04T23:51:56.335Z,16.10
2022-09-04T23:54:59.761Z,16.02
2022-09-04T23:58:35.038Z,16.16
